Kezdőlap
METAR-TAF:

METAR-TAF

Repülőterek :

Sanghaj-Putungi nemzetközi repülőtér

Sanghaj-Pudong, Kína

földrajzi szélesség: 31-07N, földrajzi hosszúság: 121-46E, magasság: 4 m

Jelenlegi meteorológiai megfigyelések

A jelentés 38 perccel ezelõtt készült, 20:30 UTC
Keleti szél 8 kt
Hőmérséklet 16°C
Páratartalom 94%
Légköri nyomás 1018 hPa
Látótávolság 10 km, vagy több
Borult 3300 lábon

METAR: ZSPD 212030Z 08004MPS 9999 OVC033 16/15 Q1018 NOSIG

Idő: 05:08 (21:08 UTC)

Előrejelzés

A jelentés 5 órával és 47 perccel ezelõtt készült, 15:21 UTC
Az előrejelzés 21-én 18 óra UTC és 22-én 18 óra UTC között érvényes
Keleti szél 8 kt
Látótávolság: 6000 m
Szakadozott felhőzet 1300 lábon
Borult 4000 lábon

TAF: ZSPD 211521Z 2118/2218 09004MPS 6000 BKN013 OVC040 TX20/2206Z TN17/2120Z

Meteorológiai megfigyelések és előrejelzések több, mint 4000 repülőtéren (METAR és TAF jelentéseket).

A térképen piros és sárga pontok jelzik az elérhető meteorológiai állomásokat.

Mozgassa az egeret a pont fölött, hogy megjelenjen az állomás neve.

Azután kattintson az időjárási megfigyelések és előrejelzések megtekintéséhez.

A térkép megváltoztatása: kattintson a fekete keresztel jelölt zöld gombra ráközelítéshez, a vonallal jelölt zöld gombra távolításhoz, vagy a zöld nyilakra a szomszédos térképek eléréséhez.


METAR-TAF: